Time;durP1;ratioP1;P1;durP2;ratioP2;P2;SDS_P1;SDS_P2;PMS_P1;PMS_P2;Temp;Humidity;BMP_temperature;BMP_pressure;BME280_temperature;BME280_humidity;BME280_pressure;Samples;Min_cycle;Max_cycle;Signal;HPM_P1;HPM_P2
2023/08/13 00:00:45;;;;;;;4.53;3.17;;;;;;;26.81;52.34;101317.56;5034883;28;20380;-57
2023/08/13 00:03:12;;;;;;;4.47;3.30;;;;;;;26.80;52.51;101319.44;5034859;28;20042;-57
2023/08/13 00:05:39;;;;;;;8.05;3.45;;;;;;;26.80;52.47;101324.03;5034990;28;20045;-57
2023/08/13 00:08:07;;;;;;;5.10;3.22;;;;;;;26.80;52.76;101319.44;5035346;28;20053;-57
2023/08/13 00:10:35;;;;;;;4.53;2.78;;;;;;;26.80;52.53;101322.16;5035330;28;20044;-57
2023/08/13 00:13:02;;;;;;;4.70;3.38;;;;;;;26.81;52.78;101325.72;5034893;28;20045;-57
2023/08/13 00:15:30;;;;;;;4.85;3.33;;;;;;;26.80;52.71;101321.31;5034169;28;20061;-57
2023/08/13 00:17:59;;;;;;;4.07;2.85;;;;;;;26.81;52.71;101331.16;5035222;28;20053;-59
2023/08/13 00:20:26;;;;;;;5.95;3.47;;;;;;;26.80;52.77;101324.03;5034566;28;20483;-59
2023/08/13 00:22:54;;;;;;;4.25;2.90;;;;;;;26.80;52.77;101327.59;5034496;28;20495;-59
2023/08/13 00:25:21;;;;;;;5.15;3.40;;;;;;;26.81;52.76;101339.28;5034558;28;20064;-57
2023/08/13 00:27:49;;;;;;;6.13;3.33;;;;;;;26.79;52.86;101339.47;5043248;28;20052;-59
2023/08/13 00:30:17;;;;;;;5.72;3.45;;;;;;;26.80;52.87;101338.44;5033531;28;20053;-59
2023/08/13 00:32:45;;;;;;;4.55;3.10;;;;;;;26.79;53.20;101336.75;5032634;28;20514;-59
2023/08/13 00:35:12;;;;;;;5.07;3.28;;;;;;;26.79;52.92;101335.91;5033844;28;20054;-59
2023/08/13 00:37:40;;;;;;;4.65;3.30;;;;;;;26.79;53.21;101338.63;5032400;28;20049;-57
2023/08/13 00:40:08;;;;;;;5.40;3.35;;;;;;;26.79;53.12;101344.06;5032686;28;20518;-57
2023/08/13 00:42:38;;;;;;;4.68;3.35;;;;;;;26.79;53.21;101344.06;5033760;28;20491;-57
2023/08/13 00:45:06;;;;;;;4.43;3.22;;;;;;;26.78;53.37;101343.22;5033516;28;20058;-57
2023/08/13 00:47:34;;;;;;;5.82;3.83;;;;;;;26.79;53.25;101352.22;5032375;28;20064;-59
2023/08/13 00:50:04;;;;;;;5.60;3.63;;;;;;;26.78;53.29;101350.50;5033777;28;20045;-59
2023/08/13 00:52:32;;;;;;;5.43;3.50;;;;;;;26.78;53.29;101342.34;5033460;28;20421;-59
2023/08/13 00:54:59;;;;;;;4.70;3.38;;;;;;;26.77;53.36;101343.38;5041589;28;20056;-59
2023/08/13 00:57:27;;;;;;;4.82;2.75;;;;;;;26.79;53.35;101349.50;5033345;28;20056;-59
2023/08/13 00:59:54;;;;;;;3.70;3.05;;;;;;;26.78;53.51;101354.09;5034205;28;20038;-59
2023/08/13 01:02:22;;;;;;;4.00;3.00;;;;;;;26.78;53.35;101342.34;5032817;28;20530;-59
2023/08/13 01:04:49;;;;;;;3.85;2.97;;;;;;;26.78;53.46;101343.22;5034098;28;20432;-59
2023/08/13 01:07:19;;;;;;;5.25;3.05;;;;;;;26.78;53.49;101340.50;5032978;28;20049;-58
2023/08/13 01:10:14;;;;;;;5.22;3.17;;;;;;;26.77;53.36;101344.22;5034050;28;20053;-59
2023/08/13 01:13:04;;;;;;;3.65;2.90;;;;;;;26.77;53.56;101343.38;5032877;28;20064;-59
2023/08/13 01:15:36;;;;;;;5.47;2.88;;;;;;;26.78;53.42;101342.34;5032457;28;20053;-59
2023/08/13 01:18:04;;;;;;;4.63;3.10;;;;;;;26.77;53.52;101346.94;5032693;28;20053;-59
2023/08/13 01:20:34;;;;;;;3.85;3.10;;;;;;;26.77;53.64;101332.50;5033520;28;20042;-59
2023/08/13 01:23:02;;;;;;;3.90;2.85;;;;;;;26.76;53.52;101336.25;5034112;28;20056;-59
2023/08/13 01:25:31;;;;;;;4.25;3.10;;;;;;;26.76;53.49;101341.69;5032458;28;20046;-59
2023/08/13 01:28:24;;;;;;;3.65;3.05;;;;;;;26.76;53.52;101339.81;5034144;28;20050;-57
2023/08/13 01:30:56;;;;;;;4.25;3.05;;;;;;;26.75;53.76;101332.69;5037432;28;20053;-57
2023/08/13 01:33:33;;;;;;;3.90;3.17;;;;;;;26.77;53.48;101340.66;5032485;28;20065;-57
2023/08/13 01:36:04;;;;;;;4.28;2.92;;;;;;;26.76;53.54;101342.53;5033845;28;20057;-57
2023/08/13 01:38:32;;;;;;;3.42;2.60;;;;;;;26.76;53.79;101339.81;5033728;28;20381;-59
2023/08/13 01:41:01;;;;;;;3.33;2.70;;;;;;;26.76;53.74;101339.81;5032863;28;20049;-59
2023/08/13 01:43:28;;;;;;;3.85;2.85;;;;;;;26.76;53.63;101338.97;5033059;28;20038;-59
2023/08/13 01:46:00;;;;;;;5.03;3.33;;;;;;;26.76;53.85;101341.69;5033023;28;20078;-59
2023/08/13 01:48:28;;;;;;;5.68;3.60;;;;;;;26.75;53.84;101346.25;5032010;28;20124;-57
2023/08/13 01:50:55;;;;;;;4.18;3.10;;;;;;;26.75;53.91;101342.72;5031813;28;20050;-58
2023/08/13 01:53:23;;;;;;;4.45;3.40;;;;;;;26.75;54.05;101340.84;5031901;28;20054;-57
2023/08/13 01:55:50;;;;;;;3.97;3.35;;;;;;;26.75;53.82;101329.97;5032874;28;20046;-59
2023/08/13 01:58:18;;;;;;;3.60;2.70;;;;;;;26.75;53.94;101329.13;5031181;28;20049;-59
2023/08/13 02:00:45;;;;;;;3.75;3.00;;;;;;;26.75;53.99;101326.41;5031896;28;20056;-59
2023/08/13 02:03:12;;;;;;;4.00;3.00;;;;;;;26.75;54.10;101326.41;5032124;28;20076;-59
2023/08/13 02:05:40;;;;;;;4.60;3.40;;;;;;;26.75;54.01;101324.53;5032606;28;20049;-59
2023/08/13 02:08:08;;;;;;;4.07;3.17;;;;;;;26.75;54.00;101318.25;5037489;28;20052;-59
2023/08/13 02:10:35;;;;;;;4.82;3.22;;;;;;;26.75;54.06;101324.53;5037326;28;20377;-59
2023/08/13 02:13:03;;;;;;;5.05;3.13;;;;;;;26.75;53.91;101318.25;5036827;28;20064;-59
2023/08/13 02:15:30;;;;;;;4.38;3.28;;;;;;;26.74;53.96;101321.97;5035468;28;20058;-59
2023/08/13 02:17:57;;;;;;;4.07;2.92;;;;;;;26.74;53.87;101327.41;5036321;28;20045;-57
2023/08/13 02:20:25;;;;;;;4.05;3.08;;;;;;;26.75;54.09;101331.84;5035986;28;20053;-57
2023/08/13 02:22:52;;;;;;;4.43;2.85;;;;;;;26.74;54.20;101331.00;5037109;28;20045;-57
2023/08/13 02:25:21;;;;;;;4.07;3.47;;;;;;;26.75;54.14;101331.84;5035800;28;20499;-57
2023/08/13 02:27:48;;;;;;;4.30;3.22;;;;;;;26.74;54.48;101331.00;5037143;28;20068;-57
2023/08/13 02:30:16;;;;;;;3.40;3.00;;;;;;;26.74;54.43;101335.56;5036750;28;20041;-57
2023/08/13 02:32:44;;;;;;;4.18;3.03;;;;;;;26.74;54.50;101336.44;5035575;28;20415;-57
2023/08/13 02:35:11;;;;;;;9.05;3.30;;;;;;;26.75;54.45;101331.84;5036337;28;20060;-57
2023/08/13 02:37:39;;;;;;;3.78;3.10;;;;;;;26.75;54.32;101337.28;5037120;28;20041;-57
2023/08/13 02:40:07;;;;;;;4.10;3.33;;;;;;;26.74;54.42;101339.13;5035293;28;20056;-57
2023/08/13 02:42:36;;;;;;;4.00;3.22;;;;;;;26.74;54.43;101340.97;5036533;28;20057;-57
2023/08/13 02:45:04;;;;;;;5.28;3.75;;;;;;;26.75;54.38;101331.84;5035168;28;20518;-57
2023/08/13 02:47:31;;;;;;;4.95;3.58;;;;;;;26.72;54.41;101333.00;5037681;28;20038;-57
2023/08/13 02:49:59;;;;;;;4.53;3.50;;;;;;;26.73;54.44;101325.72;5035995;28;20057;-57
2023/08/13 02:52:27;;;;;;;4.38;3.15;;;;;;;26.73;54.41;101325.72;5035082;28;20052;-57
2023/08/13 02:54:54;;;;;;;3.67;2.72;;;;;;;26.73;54.46;101320.28;5036169;28;20045;-57
2023/08/13 02:57:21;;;;;;;5.28;3.42;;;;;;;26.73;54.46;101326.56;5042051;28;20045;-59
2023/08/13 02:59:49;;;;;;;5.82;3.42;;;;;;;26.73;54.34;101329.28;5054855;28;20045;-59
2023/08/13 03:02:16;;;;;;;4.03;3.22;;;;;;;26.72;54.24;101327.59;5053813;28;20049;-59
2023/08/13 03:04:44;;;;;;;5.55;3.33;;;;;;;26.73;54.46;101323.00;5053769;28;20406;-59
2023/08/13 03:07:11;;;;;;;3.30;2.80;;;;;;;26.73;54.58;101323.84;5054064;28;20431;-58
2023/08/13 03:09:39;;;;;;;5.07;3.65;;;;;;;26.73;54.38;101317.56;5054086;28;20499;-59
2023/08/13 03:12:07;;;;;;;4.80;2.80;;;;;;;26.71;54.35;101320.47;5054733;28;20045;-59
2023/08/13 03:14:35;;;;;;;4.30;2.95;;;;;;;26.72;54.52;101330.28;5053297;28;20525;-59
2023/08/13 03:17:02;;;;;;;4.68;3.53;;;;;;;26.73;54.29;101321.13;5052713;28;20060;-57
2023/08/13 03:19:30;;;;;;;3.47;2.80;;;;;;;26.72;54.48;101322.16;5054196;28;20041;-59
2023/08/13 03:21:58;;;;;;;3.70;2.80;;;;;;;26.73;54.59;101317.56;5053020;28;20056;-59
2023/08/13 03:24:25;;;;;;;4.70;3.67;;;;;;;26.73;54.38;101325.72;5052725;28;20415;-59
2023/08/13 03:26:53;;;;;;;3.63;3.08;;;;;;;26.72;54.32;101326.72;5053604;28;20055;-59
2023/08/13 03:29:22;;;;;;;3.83;3.15;;;;;;;26.72;54.37;101327.59;5055135;28;20057;-59
2023/08/13 03:31:52;;;;;;;5.13;3.30;;;;;;;26.72;54.62;101333.00;5053204;28;20407;-59
2023/08/13 03:34:22;;;;;;;4.55;3.13;;;;;;;26.73;54.50;101333.84;5054283;28;20056;-59
2023/08/13 03:36:52;;;;;;;3.78;2.85;;;;;;;26.72;54.73;101326.72;5053535;28;20056;-59
2023/08/13 03:39:19;;;;;;;4.40;3.25;;;;;;;26.72;54.52;101337.59;5054046;28;20045;-57
2023/08/13 03:41:46;;;;;;;4.50;2.95;;;;;;;26.72;54.61;101334.88;5052671;28;20079;-57
2023/08/13 03:44:14;;;;;;;5.13;3.63;;;;;;;26.70;54.64;101323.31;5053934;28;20048;-57
2023/08/13 03:46:41;;;;;;;5.28;3.53;;;;;;;26.71;54.38;101331.31;5053335;28;20484;-57
2023/08/13 03:49:08;;;;;;;5.75;3.30;;;;;;;26.70;54.58;101326.91;5052656;28;20519;-58
2023/08/13 03:51:36;;;;;;;4.45;3.33;;;;;;;26.69;54.66;101333.34;5053763;28;20048;-57
2023/08/13 03:54:04;;;;;;;4.68;3.03;;;;;;;26.69;54.67;101333.34;5052149;28;20049;-57
2023/08/13 03:56:36;;;;;;;6.75;3.28;;;;;;;26.70;54.51;101332.34;5052106;28;20419;-58
2023/08/13 03:59:04;;;;;;;4.93;2.92;;;;;;;26.69;54.56;101330.63;5052896;28;20060;-59
2023/08/13 04:01:32;;;;;;;5.80;3.30;;;;;;;26.68;54.50;101334.38;5052673;28;20041;-59
2023/08/13 04:03:59;;;;;;;4.68;3.28;;;;;;;26.69;54.50;101338.78;5054089;28;20490;-59
2023/08/13 04:06:27;;;;;;;3.85;3.15;;;;;;;26.69;54.35;101332.50;5051326;28;20052;-59
2023/08/13 04:08:54;;;;;;;4.72;3.88;;;;;;;26.70;54.45;101345.06;5053684;28;20072;-59
2023/08/13 04:11:22;;;;;;;6.07;3.22;;;;;;;26.69;54.46;101343.38;5052353;28;20483;-59
2023/08/13 04:13:49;;;;;;;4.40;3.17;;;;;;;26.69;54.40;101341.50;5035045;28;20049;-59
2023/08/13 04:16:17;;;;;;;3.97;3.30;;;;;;;26.69;54.44;101344.22;5033668;28;20412;-59
2023/08/13 04:18:46;;;;;;;3.88;3.47;;;;;;;26.69;54.55;101332.50;5033482;28;20073;-59
2023/08/13 04:21:14;;;;;;;4.13;3.20;;;;;;;26.69;54.44;101337.94;5033369;28;20050;-59
2023/08/13 04:23:42;;;;;;;4.50;3.50;;;;;;;26.68;54.53;101337.09;5033441;28;20054;-59
2023/08/13 04:26:09;;;;;;;4.43;3.50;;;;;;;26.69;54.64;101337.94;5033792;28;20060;-59
2023/08/13 04:28:36;;;;;;;3.95;3.20;;;;;;;26.69;54.58;101340.66;5034685;28;20053;-59
2023/08/13 04:31:04;;;;;;;7.03;3.63;;;;;;;26.68;54.31;101339.81;5033016;28;20395;-59
2023/08/13 04:33:36;;;;;;;4.13;3.30;;;;;;;26.69;54.48;101340.66;5033248;28;20058;-59
2023/08/13 04:36:04;;;;;;;4.72;2.95;;;;;;;26.69;54.29;101340.66;5034090;28;20057;-59
2023/08/13 04:38:31;;;;;;;3.58;3.17;;;;;;;26.68;54.39;101342.50;5032884;28;20056;-59
2023/08/13 04:41:04;;;;;;;4.15;3.40;;;;;;;26.68;54.18;101344.38;5033104;28;20049;-59
2023/08/13 04:43:37;;;;;;;5.13;3.28;;;;;;;26.66;54.19;101344.56;5033754;28;20060;-59
2023/08/13 04:46:05;;;;;;;3.85;3.45;;;;;;;26.68;54.41;101341.66;5032987;28;20050;-59
2023/08/13 04:48:40;;;;;;;5.55;3.00;;;;;;;26.68;54.32;101336.25;5033100;28;20060;-59
2023/08/13 04:51:08;;;;;;;3.97;3.38;;;;;;;26.68;54.21;101338.97;5032932;28;20053;-59
2023/08/13 04:53:36;;;;;;;3.72;2.80;;;;;;;26.67;54.24;101339.97;5033278;28;20521;-59
2023/08/13 04:56:08;;;;;;;4.95;3.10;;;;;;;26.67;54.36;101339.97;5034191;28;20053;-59
2023/08/13 04:58:36;;;;;;;3.97;3.30;;;;;;;26.67;54.27;101348.97;5032904;28;20057;-57
2023/08/13 05:01:06;;;;;;;5.07;3.17;;;;;;;26.67;54.48;101342.69;5032792;28;20056;-57
2023/08/13 05:03:38;;;;;;;5.43;3.15;;;;;;;26.67;54.33;101340.81;5048165;28;20423;-57
2023/08/13 05:06:05;;;;;;;3.58;2.83;;;;;;;26.67;54.48;101351.69;5032847;28;20415;-57
2023/08/13 05:08:32;;;;;;;4.03;3.20;;;;;;;26.67;54.52;101345.41;5032676;28;20054;-59
2023/08/13 05:11:00;;;;;;;4.13;3.40;;;;;;;26.67;54.49;101356.28;5033122;28;20055;-59
2023/08/13 05:13:28;;;;;;;3.70;3.08;;;;;;;26.67;54.59;101351.69;5048799;28;20503;-59
2023/08/13 05:15:55;;;;;;;4.18;3.22;;;;;;;26.66;54.72;101349.13;5033515;28;20038;-59
2023/08/13 05:18:23;;;;;;;4.97;3.75;;;;;;;26.67;54.83;101356.28;5033421;28;20045;-59
2023/08/13 05:20:50;;;;;;;6.10;3.70;;;;;;;26.67;54.85;101348.97;5032029;28;20500;-59
2023/08/13 05:23:18;;;;;;;5.20;3.63;;;;;;;26.67;54.70;101350.84;5032384;28;20419;-59
2023/08/13 05:25:45;;;;;;;4.22;3.35;;;;;;;26.66;54.79;101352.72;5033364;28;20381;-59
2023/08/13 05:28:13;;;;;;;4.60;3.15;;;;;;;26.66;54.76;101349.13;5032925;28;20056;-59
2023/08/13 05:30:40;;;;;;;5.55;3.40;;;;;;;26.66;54.98;101347.28;5031546;28;20052;-59
2023/08/13 05:33:10;;;;;;;5.72;3.67;;;;;;;26.67;55.06;101350.84;5047482;28;20057;-58
2023/08/13 05:35:37;;;;;;;4.07;3.45;;;;;;;26.66;55.03;101355.44;5032836;28;20132;-59
2023/08/13 05:38:06;;;;;;;3.45;3.00;;;;;;;26.66;54.96;101351.84;5032308;28;20499;-59
2023/08/13 05:40:33;;;;;;;4.60;3.20;;;;;;;26.67;55.02;101356.28;5033302;28;20060;-59
2023/08/13 05:43:02;;;;;;;3.72;3.28;;;;;;;26.67;54.77;101359.00;5037683;28;20056;-59
2023/08/13 05:45:29;;;;;;;5.40;3.22;;;;;;;26.67;54.76;101356.28;5035837;28;20050;-59
2023/08/13 05:47:57;;;;;;;5.70;3.60;;;;;;;26.67;54.76;101365.28;5036368;28;20517;-59
2023/08/13 05:50:24;;;;;;;4.53;3.30;;;;;;;26.67;54.79;101356.28;5036828;28;20065;-59
2023/08/13 05:52:52;;;;;;;3.90;3.08;;;;;;;26.67;54.52;101359.00;5036249;28;20053;-59
2023/08/13 05:55:19;;;;;;;4.78;3.60;;;;;;;26.66;54.55;101360.88;5036749;28;20049;-59
2023/08/13 05:57:47;;;;;;;4.00;3.58;;;;;;;26.66;54.64;101358.16;5037302;28;20053;-57
2023/08/13 06:00:15;;;;;;;5.00;2.88;;;;;;;26.66;54.68;101360.88;5037745;28;20049;-57
2023/08/13 06:02:42;;;;;;;4.50;3.38;;;;;;;26.67;54.49;101356.28;5036091;28;20049;-57
2023/08/13 06:05:11;;;;;;;3.90;3.10;;;;;;;26.67;54.47;101354.41;5037651;28;20052;-57
2023/08/13 06:07:38;;;;;;;3.72;3.05;;;;;;;26.67;54.45;101350.84;5037029;28;20495;-59
2023/08/13 06:10:06;;;;;;;3.70;3.20;;;;;;;26.67;54.60;101357.13;5037317;28;20045;-59
2023/08/13 06:12:33;;;;;;;5.05;3.30;;;;;;;26.68;54.46;101358.81;5037132;28;20049;-59
2023/08/13 06:15:01;;;;;;;4.97;3.40;;;;;;;26.68;54.50;101361.53;5036941;28;20069;-59
2023/08/13 06:17:28;;;;;;;3.65;3.15;;;;;;;26.68;54.48;101363.41;5036914;28;20049;-57
2023/08/13 06:19:56;;;;;;;3.65;2.92;;;;;;;26.68;54.30;101364.25;5037076;28;20052;-57
2023/08/13 06:22:23;;;;;;;4.28;3.25;;;;;;;26.68;54.47;101363.41;5036582;28;20053;-57
2023/08/13 06:24:50;;;;;;;3.90;3.20;;;;;;;26.69;54.39;101367.81;5036608;28;20574;-57
2023/08/13 06:27:18;;;;;;;4.30;3.13;;;;;;;26.70;54.48;101364.06;5036665;28;20049;-58
2023/08/13 06:29:45;;;;;;;3.75;2.60;;;;;;;26.68;54.50;101361.53;5037684;28;20049;-59
2023/08/13 06:32:33;;;;;;;4.05;3.25;;;;;;;26.69;54.35;101359.66;5036821;28;20401;-59
2023/08/13 06:35:00;;;;;;;3.53;2.92;;;;;;;26.70;54.35;101377.66;5036257;28;20057;-59
2023/08/13 06:37:27;;;;;;;3.72;2.72;;;;;;;26.70;54.46;101377.66;5037298;28;20053;-59
2023/08/13 06:39:55;;;;;;;3.97;3.17;;;;;;;26.69;54.32;101365.94;5054749;28;20048;-59
2023/08/13 06:42:23;;;;;;;5.07;3.15;;;;;;;26.70;54.41;101373.09;5048248;28;20042;-59
2023/08/13 06:44:50;;;;;;;4.28;2.90;;;;;;;26.70;54.33;101388.50;5036184;28;20052;-59
2023/08/13 06:47:18;;;;;;;4.10;3.00;;;;;;;26.69;54.43;101376.81;5036476;28;20423;-57
2023/08/13 06:49:45;;;;;;;4.05;2.90;;;;;;;26.70;54.52;101391.22;5035770;28;20045;-57
2023/08/13 06:52:13;;;;;;;3.30;2.83;;;;;;;26.69;54.17;101382.22;5035646;28;20048;-57
2023/08/13 06:54:40;;;;;;;3.50;3.00;;;;;;;26.71;54.38;101391.06;5035539;28;20053;-57
2023/08/13 06:57:08;;;;;;;3.28;2.58;;;;;;;26.70;54.29;101389.38;5035399;28;20049;-58
2023/08/13 06:59:35;;;;;;;3.13;2.60;;;;;;;26.71;54.25;101392.94;5035809;28;20046;-59
2023/08/13 07:02:04;;;;;;;2.60;2.38;;;;;;;26.71;54.42;101392.94;5035369;28;20041;-59
2023/08/13 07:04:32;;;;;;;3.58;2.72;;;;;;;26.71;54.29;101384.81;5035799;28;20041;-59
2023/08/13 07:07:01;;;;;;;3.35;2.60;;;;;;;26.71;54.36;101384.81;5035905;28;20435;-58
2023/08/13 07:09:28;;;;;;;2.72;2.42;;;;;;;26.72;54.13;101391.94;5035804;28;20061;-59
2023/08/13 07:11:56;;;;;;;3.33;2.80;;;;;;;26.73;54.31;101393.63;5035602;28;20037;-59
2023/08/13 07:14:23;;;;;;;3.78;2.88;;;;;;;26.72;54.18;101397.34;5035650;28;20072;-59
2023/08/13 07:16:50;;;;;;;4.13;2.78;;;;;;;26.72;54.20;101394.63;5035823;28;20045;-59
2023/08/13 07:19:18;;;;;;;4.10;3.35;;;;;;;26.73;54.22;101390.91;5036750;28;20045;-59
2023/08/13 07:21:46;;;;;;;3.95;3.20;;;;;;;26.73;54.40;101394.47;5035411;28;20424;-59
2023/08/13 07:24:13;;;;;;;3.45;2.67;;;;;;;26.73;54.16;101399.06;5035530;28;20042;-59
2023/08/13 07:26:40;;;;;;;3.65;2.63;;;;;;;26.74;54.20;101395.31;5035640;28;20053;-59
2023/08/13 07:29:08;;;;;;;4.60;2.85;;;;;;;26.74;54.19;101392.59;5035565;28;20045;-59
2023/08/13 07:31:35;;;;;;;4.03;2.85;;;;;;;26.74;53.93;101393.47;5035708;28;20049;-59
2023/08/13 07:34:03;;;;;;;3.10;2.75;;;;;;;26.74;54.05;101390.75;5035336;28;20566;-59
2023/08/13 07:36:30;;;;;;;3.25;2.60;;;;;;;26.75;54.25;101386.16;5035610;28;20049;-59
2023/08/13 07:38:58;;;;;;;4.60;3.13;;;;;;;26.75;54.21;101388.88;5035469;28;20056;-57
2023/08/13 07:41:25;;;;;;;3.70;3.10;;;;;;;26.75;54.20;101388.88;5035438;28;20046;-57
2023/08/13 07:43:53;;;;;;;4.10;3.15;;;;;;;26.76;53.85;101385.97;5035269;28;20467;-57
2023/08/13 07:46:20;;;;;;;3.80;2.85;;;;;;;26.75;53.82;101380.72;5035496;28;20404;-57
2023/08/13 07:48:48;;;;;;;2.75;2.42;;;;;;;26.75;53.81;101392.44;5035246;28;20593;-59
2023/08/13 07:51:15;;;;;;;5.10;2.83;;;;;;;26.76;54.10;101387.84;5035423;28;20041;-59
2023/08/13 07:53:42;;;;;;;3.33;2.55;;;;;;;26.77;54.27;101394.97;5034971;28;20488;-59
2023/08/13 07:56:10;;;;;;;3.45;2.72;;;;;;;26.76;53.99;101396.00;5035171;28;20041;-59
2023/08/13 07:58:38;;;;;;;4.05;2.88;;;;;;;26.77;53.88;101394.97;5051502;28;20407;-59
2023/08/13 08:01:05;;;;;;;3.63;3.10;;;;;;;26.77;53.83;101393.09;5053585;28;20048;-59
2023/08/13 08:03:33;;;;;;;3.25;2.70;;;;;;;26.78;53.84;101393.94;5053153;28;20048;-59
2023/08/13 08:06:00;;;;;;;3.85;2.78;;;;;;;26.78;54.00;101385.81;5053292;28;20388;-59
2023/08/13 08:08:28;;;;;;;5.85;3.38;;;;;;;26.79;54.09;101382.09;5053657;28;20045;-59
2023/08/13 08:10:55;;;;;;;4.10;2.72;;;;;;;26.79;53.83;101385.66;5052257;28;20517;-59
2023/08/13 08:13:22;;;;;;;3.78;2.67;;;;;;;26.78;53.88;101378.53;5053558;28;20476;-59
2023/08/13 08:15:50;;;;;;;3.70;2.38;;;;;;;26.80;53.92;101378.34;5053329;28;20052;-59
2023/08/13 08:18:17;;;;;;;3.30;2.67;;;;;;;26.81;53.72;101386.31;5053909;28;20055;-59
2023/08/13 08:20:44;;;;;;;3.05;2.33;;;;;;;26.81;53.72;101377.31;5053211;28;20411;-59
2023/08/13 08:23:13;;;;;;;3.40;2.50;;;;;;;26.81;53.58;101380.03;5053319;28;20045;-59
2023/08/13 08:25:41;;;;;;;3.28;2.60;;;;;;;26.81;53.94;101389.03;5053196;28;20487;-59
2023/08/13 08:28:09;;;;;;;3.58;3.15;;;;;;;26.81;53.77;101375.47;5033989;28;20407;-59
2023/08/13 08:30:36;;;;;;;4.03;3.03;;;;;;;26.82;54.00;101376.34;5033867;28;20045;-59
2023/08/13 08:33:04;;;;;;;3.38;2.60;;;;;;;26.82;53.83;101371.75;5033550;28;20037;-59
2023/08/13 08:35:33;;;;;;;3.03;2.58;;;;;;;26.82;53.70;101377.19;5034191;28;20049;-59
2023/08/13 08:38:01;;;;;;;3.45;2.80;;;;;;;26.83;53.73;101372.59;5034002;28;20049;-59
2023/08/13 08:40:28;;;;;;;4.18;2.83;;;;;;;26.83;53.75;101378.88;5033595;28;20483;-59
2023/08/13 08:42:57;;;;;;;3.33;2.85;;;;;;;26.84;53.73;101374.28;5034718;28;20048;-59
2023/08/13 08:45:25;;;;;;;3.60;2.80;;;;;;;26.84;53.84;101377.84;5033531;28;20053;-59
2023/08/13 08:47:54;;;;;;;4.35;2.80;;;;;;;26.84;54.09;101383.28;5033484;28;20045;-59
2023/08/13 08:50:21;;;;;;;3.95;3.17;;;;;;;26.85;53.95;101375.97;5033471;28;20076;-59
2023/08/13 08:52:50;;;;;;;3.80;3.40;;;;;;;26.86;53.89;101377.69;5034229;28;20056;-59
2023/08/13 08:55:17;;;;;;;3.58;3.03;;;;;;;26.86;53.94;101381.25;5033413;28;20045;-59
2023/08/13 08:57:44;;;;;;;3.90;2.80;;;;;;;26.86;53.98;101375.81;5033776;28;20045;-57
2023/08/13 09:00:12;;;;;;;4.10;2.63;;;;;;;26.87;53.81;101376.66;5033635;28;20045;-57
2023/08/13 09:02:41;;;;;;;3.63;2.95;;;;;;;26.87;53.99;101374.81;5033651;28;20526;-57
2023/08/13 09:05:09;;;;;;;3.53;2.63;;;;;;;26.87;54.26;101379.38;5032782;28;20049;-57
2023/08/13 09:07:42;;;;;;;4.32;3.20;;;;;;;26.88;54.05;101372.94;5033276;28;20045;-57
2023/08/13 09:10:10;;;;;;;3.53;2.67;;;;;;;26.88;53.83;101376.50;5033739;28;20495;-57
2023/08/13 09:12:40;;;;;;;2.97;2.67;;;;;;;26.89;53.92;101377.34;5033089;28;20056;-57
2023/08/13 09:15:10;;;;;;;3.90;2.88;;;;;;;26.89;53.87;101371.91;5033145;28;20500;-57
2023/08/13 09:17:39;;;;;;;2.70;2.35;;;;;;;26.89;53.52;101366.47;5044064;28;20052;-57
2023/08/13 09:20:16;;;;;;;3.83;3.03;;;;;;;26.91;53.42;101374.47;5056918;28;20045;-57
2023/08/13 09:22:45;;;;;;;3.72;3.17;;;;;;;26.91;53.59;101377.19;5056337;28;20407;-57
2023/08/13 09:25:16;;;;;;;3.75;3.05;;;;;;;26.91;53.57;101369.88;5038113;28;20050;-57
2023/08/13 09:27:44;;;;;;;3.45;2.85;;;;;;;26.92;53.29;101371.56;5037777;28;20052;-59
2023/08/13 09:30:19;;;;;;;4.03;2.78;;;;;;;26.92;53.63;101366.13;5037525;28;20478;-59
2023/08/13 09:32:47;;;;;;;3.90;2.75;;;;;;;26.93;53.67;101372.41;5038270;28;20041;-59
2023/08/13 09:35:16;;;;;;;3.78;2.83;;;;;;;26.92;53.70;101365.28;5037658;28;20392;-59
2023/08/13 09:37:43;;;;;;;3.08;2.72;;;;;;;26.93;53.44;101369.69;5037109;28;20041;-59
2023/08/13 09:40:10;;;;;;;3.42;2.90;;;;;;;26.93;53.71;101369.69;5037543;28;20057;-59
2023/08/13 09:42:38;;;;;;;3.58;2.53;;;;;;;26.94;53.64;101360.53;5038551;28;20046;-59
2023/08/13 09:45:09;;;;;;;3.42;2.47;;;;;;;26.94;53.64;101364.13;5037606;28;20053;-58
2023/08/13 09:47:42;;;;;;;3.78;2.65;;;;;;;26.95;53.53;101360.38;5037781;28;20049;-57
2023/08/13 09:50:12;;;;;;;3.65;2.85;;;;;;;26.96;53.70;101353.06;5037536;28;20156;-58
2023/08/13 09:52:44;;;;;;;2.97;2.40;;;;;;;26.96;53.58;101355.78;5056064;28;20368;-57
2023/08/13 09:55:13;;;;;;;3.83;2.90;;;;;;;26.96;53.56;101358.50;5056247;28;20483;-57
2023/08/13 09:57:42;;;;;;;3.95;2.95;;;;;;;26.96;53.40;101353.91;5055914;28;20053;-57
2023/08/13 10:00:12;;;;;;;3.20;2.60;;;;;;;26.96;53.68;101353.91;5055383;28;20072;-57
2023/08/13 10:02:43;;;;;;;2.88;2.33;;;;;;;26.98;53.44;101345.56;5055611;28;20056;-57
2023/08/13 10:05:11;;;;;;;3.92;2.55;;;;;;;26.97;53.37;101344.72;5056053;28;20048;-57
2023/08/13 10:07:40;;;;;;;3.35;2.78;;;;;;;26.98;53.47;101334.72;5056517;28;20041;-58
2023/08/13 10:10:08;;;;;;;3.50;2.20;;;;;;;26.97;53.26;101336.59;5055984;28;20049;-59
2023/08/13 10:12:37;;;;;;;2.83;2.38;;;;;;;26.98;53.40;101334.72;5055702;28;20041;-59
2023/08/13 10:15:06;;;;;;;3.85;2.30;;;;;;;26.99;53.38;101334.56;5056328;28;20044;-59
2023/08/13 10:17:34;;;;;;;3.45;2.55;;;;;;;26.98;53.50;101335.59;5055614;28;20376;-59
2023/08/13 10:20:03;;;;;;;3.03;2.45;;;;;;;26.99;53.22;101329.13;5054877;28;20045;-59
2023/08/13 10:22:38;;;;;;;3.33;2.38;;;;;;;27.01;53.48;101328.94;5055577;28;20049;-59
2023/08/13 10:25:07;;;;;;;3.83;2.75;;;;;;;27.00;53.36;101330.81;5055446;28;20492;-59
2023/08/13 10:27:36;;;;;;;3.35;2.90;;;;;;;27.00;53.34;101325.38;5045092;28;20389;-57
2023/08/13 10:30:07;;;;;;;3.78;2.75;;;;;;;27.01;53.13;101328.94;5055272;28;20049;-57
2023/08/13 10:32:58;;;;;;;3.55;2.45;;;;;;;27.00;53.09;101319.94;5055412;28;20060;-57
2023/08/13 10:35:34;;;;;;;3.40;2.65;;;;;;;27.02;53.13;101322.47;5054407;28;20492;-57
2023/08/13 10:38:03;;;;;;;5.55;2.75;;;;;;;27.01;53.36;101310.75;5036640;28;20498;-59
2023/08/13 10:40:31;;;;;;;3.80;2.95;;;;;;;27.02;52.99;101312.47;5036216;28;20049;-59
2023/08/13 10:42:59;;;;;;;3.72;2.80;;;;;;;27.01;53.36;101310.75;5036290;28;20056;-59
2023/08/13 10:45:35;;;;;;;3.40;2.65;;;;;;;27.02;53.12;101307.06;5036714;28;20526;-59
2023/08/13 10:48:06;;;;;;;3.22;2.50;;;;;;;27.03;53.15;101307.91;5036370;28;20049;-59
2023/08/13 10:50:42;;;;;;;4.20;2.80;;;;;;;27.03;53.26;101307.91;5036381;28;20048;-59
2023/08/13 10:53:11;;;;;;;3.03;2.25;;;;;;;27.03;52.94;101307.91;5036585;28;20064;-59
2023/08/13 10:55:42;;;;;;;3.33;2.80;;;;;;;27.03;53.24;101302.47;5036450;28;20092;-59
2023/08/13 10:58:29;;;;;;;3.35;2.67;;;;;;;27.03;52.98;101303.31;5036395;28;20056;-57
2023/08/13 11:00:59;;;;;;;3.05;2.53;;;;;;;27.03;53.06;101306.03;5035957;28;20041;-57
2023/08/13 11:03:33;;;;;;;3.33;2.47;;;;;;;27.04;52.93;101307.72;5054663;28;20045;-58
2023/08/13 11:06:02;;;;;;;3.60;2.42;;;;;;;27.04;53.05;101302.28;5055184;28;20483;-57
2023/08/13 11:08:30;;;;;;;3.83;2.83;;;;;;;27.05;52.75;101300.41;5054995;28;20048;-57
2023/08/13 11:11:16;;;;;;;4.18;2.40;;;;;;;27.03;52.96;101297.88;5054127;28;20056;-57
2023/08/13 11:13:45;;;;;;;3.00;2.58;;;;;;;27.04;52.94;101302.28;5054919;28;20056;-57
2023/08/13 11:16:13;;;;;;;2.90;2.15;;;;;;;27.04;52.83;101305.00;5054569;28;20045;-57
2023/08/13 11:18:41;;;;;;;3.60;2.47;;;;;;;27.05;52.74;101294.97;5054734;28;20407;-59
2023/08/13 11:21:08;;;;;;;2.97;2.60;;;;;;;27.05;52.86;101297.69;5054214;28;20384;-59
2023/08/13 11:23:36;;;;;;;3.30;2.60;;;;;;;27.05;52.74;101290.38;5055007;28;20049;-59
2023/08/13 11:26:05;;;;;;;3.42;2.58;;;;;;;27.06;52.96;101291.22;5054249;28;20063;-59
2023/08/13 11:28:33;;;;;;;3.30;2.67;;;;;;;27.07;52.77;101298.38;5054581;28;20072;-59
2023/08/13 11:31:01;;;;;;;3.13;2.58;;;;;;;27.07;52.65;101295.66;5054015;28;20051;-59